aviador You're here:

YSSY Decoded Metar

SYDNEY in AUSTRALIA
Report Time2018-02-25 15:30:00
UTC Time2018-02-25 15:38:23
Flight Rules mvfr MVFR
Wind150° at 19 Gusting to 29 kt
W.Decomp.*RWY 16: 17.6 kt HW 7.1 kt LCW
RWY 07: 7.1 kt HW 17.6 kt RCW
W.Rank150° ranks 25
Current wind is above 150° avg. (10.4)
Visibility5000 m
Phenomena:Rain
Clouds:Scattered 009 Hf
Broken 013 Hf
Broken 020 Hf
Expected CloudBase > 400 ft AGL from Temp-Dew spread
Ceiling1,300 ft
Temp19°C (ISA +4)
Dew Point18°C (94% RH)
AAT15.0°C
QNH1009 hPa
Density Alt889 ft
Elevation10 ft
Report Wrong Elevation
Raw Report
YSSY 251530Z 15019G29KT 5000 RA SCT009 BKN013 BKN020 19/18 Q1009=

Extra information for YSSY:More info

Metar Taf Metar & Taf Last 4 Metars F.Rules Stats Wind Profile Meteogram Temp Stats Airport Information Weather charts Add Link Nearby VenuesMetar ALERT Operation Metar Decoded Social comments